createdAt,value
2022-08-11T00:02:27.865Z,95973.53
2022-08-11T00:04:58.065Z,95967.63
2022-08-11T00:07:26.933Z,95982.03
2022-08-11T00:09:56.573Z,95975.47
2022-08-11T00:12:26.539Z,95977.94
2022-08-11T00:15:00.104Z,95975.09
2022-08-11T00:17:30.218Z,95976.78
2022-08-11T00:20:15.222Z,95967.34
2022-08-11T00:22:46.652Z,95971.50
2022-08-11T00:25:16.624Z,95970.06
2022-08-11T00:27:46.996Z,95975.19
2022-08-11T00:30:15.802Z,95978.06
2022-08-11T00:32:46.440Z,95970.88
2022-08-11T00:35:56.343Z,95968.63
2022-08-11T00:38:08.095Z,95966.41
2022-08-11T00:40:41.903Z,95976.03
2022-08-11T00:43:23.059Z,95972.31
2022-08-11T00:46:15.646Z,95967.00
2022-08-11T00:48:58.254Z,95966.78
2022-08-11T00:51:59.752Z,95959.59
2022-08-11T00:55:03.471Z,95958.78
2022-08-11T00:58:07.350Z,95953.47
2022-08-11T01:00:58.235Z,95960.84
2022-08-11T01:03:43.862Z,95958.41
2022-08-11T01:06:32.695Z,95962.09
2022-08-11T01:09:29.079Z,95964.56
2022-08-11T01:12:22.050Z,95961.75
2022-08-11T01:15:17.742Z,95962.97
2022-08-11T01:18:28.356Z,95961.78
2022-08-11T01:21:22.237Z,95966.28
2022-08-11T01:24:31.153Z,95960.56
2022-08-11T01:27:33.999Z,95961.78
2022-08-11T01:30:18.844Z,95963.25
2022-08-11T01:33:25.974Z,95962.66
2022-08-11T01:36:48.307Z,95962.69
2022-08-11T01:39:50.071Z,95960.88
2022-08-11T01:43:07.223Z,95958.41
2022-08-11T01:45:43.010Z,95953.72
2022-08-11T01:48:24.048Z,95960.47
2022-08-11T01:51:04.370Z,95958.25
2022-08-11T01:53:46.475Z,95964.38
2022-08-11T01:56:30.774Z,95966.06
2022-08-11T01:59:08.678Z,95963.59
2022-08-11T02:01:46.551Z,95960.31
2022-08-11T02:04:25.766Z,95950.06
2022-08-11T02:07:02.774Z,95946.81
2022-08-11T02:09:49.628Z,95940.88
2022-08-11T02:12:42.698Z,95942.72
2022-08-11T02:15:27.706Z,95945.56
2022-08-11T02:18:05.062Z,95949.25
2022-08-11T02:20:56.022Z,95934.09
2022-08-11T02:24:03.868Z,95935.13
2022-08-11T02:26:42.174Z,95939.44
2022-08-11T02:29:19.969Z,95939.63
2022-08-11T02:32:24.374Z,95932.69
2022-08-11T02:35:04.681Z,95932.31
2022-08-11T02:37:43.891Z,95936.59
2022-08-11T02:40:21.665Z,95931.91
2022-08-11T02:43:06.363Z,95927.19
2022-08-11T02:45:47.290Z,95933.75
2022-08-11T02:48:47.101Z,95929.66
2022-08-11T02:51:24.610Z,95928.22
2022-08-11T02:54:02.158Z,95930.50
2022-08-11T02:56:44.618Z,95932.53
2022-08-11T02:59:45.900Z,95940.31
2022-08-11T03:02:32.745Z,95941.94
2022-08-11T03:05:08.650Z,95942.94
2022-08-11T03:07:49.321Z,95933.56
2022-08-11T03:10:24.515Z,95927.63
2022-08-11T03:13:15.522Z,95930.28
2022-08-11T03:16:09.949Z,95933.75
2022-08-11T03:18:46.296Z,95926.59
2022-08-11T03:21:22.052Z,95930.91
2022-08-11T03:23:56.845Z,95939.47
2022-08-11T03:26:29.652Z,95933.34
2022-08-11T03:29:08.060Z,95929.28
2022-08-11T03:31:46.097Z,95935.41
2022-08-11T03:34:18.489Z,95939.09
2022-08-11T03:37:34.213Z,95938.44
2022-08-11T03:40:12.279Z,95923.53
2022-08-11T03:42:46.919Z,95923.53
2022-08-11T03:45:29.540Z,95931.72
2022-08-11T03:48:13.904Z,95933.75
2022-08-11T03:50:56.043Z,95934.59
2022-08-11T03:53:48.930Z,95931.31
2022-08-11T03:56:55.340Z,95924.75
2022-08-11T03:59:51.832Z,95934.38
2022-08-11T04:02:34.876Z,95937.03
2022-08-11T04:05:37.275Z,95937.00
2022-08-11T04:08:40.639Z,95933.34
2022-08-11T04:11:47.010Z,95936.81
2022-08-11T04:15:07.693Z,95934.56
2022-08-11T04:18:15.453Z,95931.50
2022-08-11T04:21:05.982Z,95937.41
2022-08-11T04:24:35.624Z,95938.66
2022-08-11T04:27:08.323Z,95933.75
2022-08-11T04:30:03.025Z,95934.97
2022-08-11T04:33:34.177Z,95941.09
2022-08-11T04:36:42.962Z,95934.16
2022-08-11T04:39:27.080Z,95932.75
2022-08-11T04:42:53.535Z,95945.19
2022-08-11T04:45:46.021Z,95943.59
2022-08-11T04:48:57.374Z,95946.44
2022-08-11T04:52:37.971Z,95947.69
2022-08-11T04:55:50.676Z,95943.16
2022-08-11T04:58:41.914Z,95950.50
2022-08-11T05:01:43.454Z,95952.50
2022-08-11T05:04:47.954Z,95954.16
2022-08-11T05:07:42.220Z,95963.78
2022-08-11T05:10:27.133Z,95961.66
2022-08-11T05:12:56.953Z,95961.41
2022-08-11T05:15:53.891Z,95961.34
2022-08-11T05:18:42.779Z,95953.91
2022-08-11T05:21:31.188Z,95958.31
2022-08-11T05:24:39.874Z,95955.78
2022-08-11T05:27:28.731Z,95948.75
2022-08-11T05:30:20.062Z,95944.94
2022-08-11T05:33:14.752Z,95944.03
2022-08-11T05:36:02.294Z,95947.56
2022-08-11T05:38:52.517Z,95940.03
2022-08-11T05:41:41.908Z,95938.44
2022-08-11T05:44:29.381Z,95936.25
2022-08-11T05:47:16.862Z,95941.44
2022-08-11T05:50:08.906Z,95940.63
2022-08-11T05:53:05.222Z,95944.53
2022-08-11T05:56:02.268Z,95943.56
2022-08-11T05:58:41.761Z,95942.56
2022-08-11T06:01:10.590Z,95944.66
2022-08-11T06:03:59.002Z,95940.59
2022-08-11T06:06:29.610Z,95944.81
2022-08-11T06:08:58.817Z,95945.06
2022-08-11T06:11:44.137Z,95939.28
2022-08-11T06:14:15.650Z,95949.88
2022-08-11T06:16:48.213Z,95952.78
2022-08-11T06:19:16.741Z,95942.13
2022-08-11T06:21:47.847Z,95945.88
2022-08-11T06:24:16.970Z,95950.88
2022-08-11T06:29:54.391Z,95951.78
2022-08-11T06:32:25.968Z,95950.16
2022-08-11T06:35:04.638Z,95951.09
2022-08-11T06:37:43.524Z,95953.28
2022-08-11T06:40:18.980Z,95946.91
2022-08-11T06:42:54.648Z,95951.41
2022-08-11T06:45:30.589Z,95952.09
2022-08-11T06:48:01.126Z,95951.38
2022-08-11T06:50:48.553Z,95956.63
2022-08-11T06:53:19.803Z,95962.88
2022-08-11T06:56:08.748Z,95959.94
2022-08-11T06:58:57.745Z,95963.66
2022-08-11T07:01:46.269Z,95954.59
2022-08-11T07:04:25.048Z,95955.03
2022-08-11T07:07:22.788Z,95959.38
2022-08-11T07:10:38.531Z,95959.56
2022-08-11T07:13:44.434Z,95949.72
2022-08-11T07:16:17.220Z,95948.66
2022-08-11T07:19:06.680Z,95948.59
2022-08-11T07:22:01.280Z,95949.09
2022-08-11T07:24:59.338Z,95939.81
2022-08-11T07:27:55.492Z,95936.06
2022-08-11T07:30:25.317Z,95943.72
2022-08-11T07:32:57.465Z,95941.81
2022-08-11T07:35:34.164Z,95937.66
2022-08-11T07:38:06.876Z,95943.81
2022-08-11T07:40:37.127Z,95935.97
2022-08-11T07:43:06.948Z,95938.22
2022-08-11T07:46:07.478Z,95939.47
2022-08-11T07:48:53.665Z,95937.16
2022-08-11T07:51:41.282Z,95939.31
2022-08-11T07:54:17.110Z,95941.03
2022-08-11T07:56:55.328Z,95939.41
2022-08-11T08:00:03.514Z,95943.69
2022-08-11T08:02:59.866Z,95936.72
2022-08-11T08:05:45.302Z,95940.47
2022-08-11T08:08:33.462Z,95937.75
2022-08-11T08:11:25.504Z,95938.38
2022-08-11T08:14:13.335Z,95948.50
2022-08-11T08:17:00.370Z,95932.56
2022-08-11T08:19:28.648Z,95936.63
2022-08-11T08:22:01.099Z,95941.03
2022-08-11T08:24:47.877Z,95938.50
2022-08-11T08:27:16.493Z,95933.59
2022-08-11T08:30:03.912Z,95939.88
2022-08-11T08:32:32.620Z,95935.84
2022-08-11T08:35:00.935Z,95929.94
2022-08-11T08:37:46.989Z,95937.75
2022-08-11T08:40:17.448Z,95932.66
2022-08-11T08:42:51.978Z,95930.81
2022-08-11T08:45:21.111Z,95931.06
2022-08-11T08:47:54.543Z,95935.66
2022-08-11T08:50:27.688Z,95925.09
2022-08-11T08:53:02.250Z,95929.94
2022-08-11T08:55:33.648Z,95933.22
2022-08-11T08:58:03.091Z,95934.28
2022-08-11T09:00:41.778Z,95930.69
2022-08-11T09:03:39.893Z,95936.81
2022-08-11T09:05:59.595Z,95935.53
2022-08-11T09:08:29.422Z,95932.31
2022-08-11T09:11:14.263Z,95939.22
2022-08-11T09:13:46.089Z,95936.00
2022-08-11T09:16:31.772Z,95935.78
2022-08-11T09:19:01.851Z,95934.00
2022-08-11T09:21:48.781Z,95941.03
2022-08-11T09:24:36.715Z,95938.13
2022-08-11T09:27:08.730Z,95938.94
2022-08-11T09:29:39.063Z,95940.16
2022-08-11T09:32:08.408Z,95940.78
2022-08-11T09:34:38.284Z,95936.88
2022-08-11T09:37:55.761Z,95941.25
2022-08-11T09:40:33.363Z,95936.00
2022-08-11T09:43:23.167Z,95931.22
2022-08-11T09:45:53.534Z,95928.88
2022-08-11T09:48:22.871Z,95935.78
2022-08-11T09:50:52.407Z,95933.84
2022-08-11T09:53:35.058Z,95925.56
2022-08-11T09:56:26.778Z,95930.00
2022-08-11T09:58:54.944Z,95924.25
2022-08-11T10:01:30.130Z,95925.19
2022-08-11T10:04:01.563Z,95917.22
2022-08-11T10:06:53.958Z,95921.91
2022-08-11T10:09:25.014Z,95916.38
2022-08-11T10:11:58.833Z,95904.75
2022-08-11T10:14:46.473Z,95910.31
2022-08-11T10:17:17.416Z,95906.53
2022-08-11T10:20:02.742Z,95912.44
2022-08-11T10:22:50.749Z,95903.97
2022-08-11T10:25:36.350Z,95901.22
2022-08-11T10:28:17.767Z,95903.94
2022-08-11T10:31:15.553Z,95896.50
2022-08-11T10:34:01.592Z,95904.38
2022-08-11T10:36:32.130Z,95897.38
2022-08-11T10:39:01.408Z,95901.50
2022-08-11T10:42:07.373Z,95891.47
2022-08-11T10:44:39.225Z,95890.00
2022-08-11T10:47:28.002Z,95886.84
2022-08-11T10:50:11.367Z,95879.88
2022-08-11T10:52:58.474Z,95881.16
2022-08-11T10:55:44.638Z,95878.31
2022-08-11T10:58:30.612Z,95878.44
2022-08-11T11:01:00.495Z,95871.09
2022-08-11T11:03:34.476Z,95867.16
2022-08-11T11:06:13.271Z,95869.38
2022-08-11T11:09:04.482Z,95872.38
2022-08-11T11:11:55.143Z,95865.69
2022-08-11T11:14:46.071Z,95867.31
2022-08-11T11:17:42.735Z,95861.94
2022-08-11T11:20:34.730Z,95865.72
2022-08-11T11:23:08.969Z,95866.03
2022-08-11T11:26:06.255Z,95856.56
2022-08-11T11:28:51.395Z,95864.03
2022-08-11T11:31:31.675Z,95863.59
2022-08-11T11:34:16.046Z,95860.34
2022-08-11T11:36:49.942Z,95849.22
2022-08-11T11:39:20.338Z,95855.53
2022-08-11T11:41:49.404Z,95853.63
2022-08-11T11:44:17.883Z,95854.56
2022-08-11T11:46:46.800Z,95848.13
2022-08-11T11:49:18.569Z,95852.38
2022-08-11T11:51:50.210Z,95846.78
2022-08-11T11:54:21.091Z,95850.56
2022-08-11T11:56:51.214Z,95850.22
2022-08-11T11:59:37.368Z,95844.22
2022-08-11T12:02:11.983Z,95854.16
2022-08-11T12:04:43.022Z,95852.63
2022-08-11T12:07:30.891Z,95840.50
2022-08-11T12:10:00.003Z,95859.06
2022-08-11T12:12:54.354Z,95841.31
2022-08-11T12:16:06.491Z,95832.63
2022-08-11T12:18:12.358Z,95835.88
2022-08-11T12:20:40.386Z,95833.44
2022-08-11T12:23:28.183Z,95822.94
2022-08-11T12:26:27.012Z,95827.75
2022-08-11T12:28:59.768Z,95822.22
2022-08-11T12:31:29.302Z,95831.91
2022-08-11T12:34:02.447Z,95824.50
2022-08-11T12:36:33.613Z,95824.69
2022-08-11T12:39:23.167Z,95814.38
2022-08-11T12:42:11.399Z,95811.28
2022-08-11T12:44:56.991Z,95814.22
2022-08-11T12:47:45.792Z,95821.03
2022-08-11T12:50:52.370Z,95818.03
2022-08-11T12:53:28.053Z,95806.66
2022-08-11T12:56:21.275Z,95806.16
2022-08-11T12:58:50.620Z,95801.41
2022-08-11T13:01:38.922Z,95798.94
2022-08-11T13:04:24.343Z,95798.88
2022-08-11T13:06:53.205Z,95792.25
2022-08-11T13:09:21.853Z,95794.88
2022-08-11T13:12:08.687Z,95791.66
2022-08-11T13:14:36.615Z,95796.97
2022-08-11T13:17:43.473Z,95791.03
2022-08-11T13:20:13.450Z,95793.94
2022-08-11T13:22:45.619Z,95789.66
2022-08-11T13:25:16.226Z,95795.28
2022-08-11T13:27:46.487Z,95788.00
2022-08-11T13:30:35.594Z,95794.06
2022-08-11T13:33:07.507Z,95784.91
2022-08-11T13:35:36.986Z,95791.28
2022-08-11T13:38:27.565Z,95781.56
2022-08-11T13:40:56.505Z,95780.56
2022-08-11T13:43:26.013Z,95782.56
2022-08-11T13:46:15.423Z,95774.72
2022-08-11T13:48:43.530Z,95769.69
2022-08-11T13:51:34.781Z,95769.50
2022-08-11T13:54:07.538Z,95769.50
2022-08-11T13:56:39.662Z,95766.88
2022-08-11T13:59:10.194Z,95765.72
2022-08-11T14:02:20.841Z,95758.13
2022-08-11T14:04:33.807Z,95761.44
2022-08-11T14:07:06.139Z,95756.31
2022-08-11T14:09:45.986Z,95756.59
2022-08-11T14:12:36.825Z,95751.38
2022-08-11T14:15:11.841Z,95756.19
2022-08-11T14:17:48.942Z,95753.38
2022-08-11T14:20:39.450Z,95749.97
2022-08-11T14:23:11.380Z,95738.50
2022-08-11T14:26:02.931Z,95749.25
2022-08-11T14:28:38.857Z,95741.53
2022-08-11T14:31:15.172Z,95746.72
2022-08-11T14:34:00.722Z,95745.16
2022-08-11T14:36:33.339Z,95737.41
2022-08-11T14:39:04.165Z,95750.41
2022-08-11T14:42:11.229Z,95740.00
2022-08-11T14:44:58.571Z,95745.84
2022-08-11T14:47:29.087Z,95739.06
2022-08-11T14:50:11.145Z,95745.13
2022-08-11T14:52:46.450Z,95740.50
2022-08-11T14:55:32.408Z,95738.56
2022-08-11T14:58:01.812Z,95733.91
2022-08-11T15:00:30.982Z,95740.66
2022-08-11T15:03:12.973Z,95738.34
2022-08-11T15:05:57.322Z,95728.22
2022-08-11T15:08:47.255Z,95729.94
2022-08-11T15:11:35.734Z,95727.59
2022-08-11T15:14:05.357Z,95736.16
2022-08-11T15:16:51.815Z,95726.53
2022-08-11T15:19:21.967Z,95724.59
2022-08-11T15:22:07.947Z,95721.59
2022-08-11T15:24:37.184Z,95722.38
2022-08-11T15:27:28.183Z,95719.97
2022-08-11T15:30:20.959Z,95714.63
2022-08-11T15:33:20.188Z,95718.22
2022-08-11T15:36:07.818Z,95706.25
2022-08-11T15:38:40.879Z,95714.69
2022-08-11T15:41:30.614Z,95707.56
2022-08-11T15:44:16.469Z,95704.91
2022-08-11T15:46:48.345Z,95705.28
2022-08-11T15:49:23.784Z,95699.69
2022-08-11T15:52:02.286Z,95691.22
2022-08-11T15:54:32.901Z,95696.72
2022-08-11T15:57:03.830Z,95696.50
2022-08-11T15:59:52.339Z,95691.72
2022-08-11T16:02:41.183Z,95692.75
2022-08-11T16:05:14.119Z,95688.44
2022-08-11T16:08:04.800Z,95684.75
2022-08-11T16:10:33.862Z,95685.41
2022-08-11T16:13:21.071Z,95679.28
2022-08-11T16:16:11.051Z,95696.13
2022-08-11T16:18:44.184Z,95692.72
2022-08-11T16:21:26.260Z,95688.91
2022-08-11T16:24:07.639Z,95686.97
2022-08-11T16:27:10.130Z,95686.41
2022-08-11T16:29:31.679Z,95681.19
2022-08-11T16:32:20.668Z,95672.94
2022-08-11T16:35:10.648Z,95673.56
2022-08-11T16:37:57.767Z,95673.03
2022-08-11T16:40:27.163Z,95668.88
2022-08-11T16:43:15.100Z,95665.72
2022-08-11T16:46:01.222Z,95673.94
2022-08-11T16:48:36.244Z,95667.63
2022-08-11T16:51:07.059Z,95668.22
2022-08-11T16:53:59.607Z,95670.56
2022-08-11T16:56:28.278Z,95672.41
2022-08-11T16:59:11.011Z,95667.59
2022-08-11T17:01:40.324Z,95673.28
2022-08-11T17:04:31.304Z,95680.41
2022-08-11T17:07:23.616Z,95673.53
2022-08-11T17:10:31.774Z,95680.66
2022-08-11T17:13:18.844Z,95678.59
2022-08-11T17:16:07.966Z,95687.75
2022-08-11T17:18:43.161Z,95677.53
2022-08-11T17:21:16.010Z,95685.31
2022-08-11T17:23:48.206Z,95679.53
2022-08-11T17:26:19.018Z,95682.06
2022-08-11T17:28:52.836Z,95680.63
2022-08-11T17:31:40.424Z,95680.78
2022-08-11T17:34:26.292Z,95682.44
2022-08-11T17:36:56.250Z,95680.31
2022-08-11T17:39:30.080Z,95673.44
2022-08-11T17:42:17.521Z,95679.97
2022-08-11T17:45:05.416Z,95673.03
2022-08-11T17:47:52.591Z,95681.03
2022-08-11T17:50:21.979Z,95686.28
2022-08-11T17:53:08.442Z,95686.84
2022-08-11T17:55:58.132Z,95692.00
2022-08-11T17:58:45.926Z,95696.16
2022-08-11T18:01:15.884Z,95684.31
2022-08-11T18:03:56.424Z,95694.13
2022-08-11T18:06:33.786Z,95693.09
2022-08-11T18:09:23.830Z,95705.00
2022-08-11T18:12:12.734Z,95706.69
2022-08-11T18:15:00.835Z,95705.91
2022-08-11T18:17:47.538Z,95700.31
2022-08-11T18:20:32.570Z,95702.00
2022-08-11T18:23:41.664Z,95703.13
2022-08-11T18:26:31.080Z,95699.63
2022-08-11T18:29:18.179Z,95700.19
2022-08-11T18:32:08.633Z,95695.63
2022-08-11T18:35:00.433Z,95697.81
2022-08-11T18:37:49.952Z,95695.13
2022-08-11T18:40:40.607Z,95699.72
2022-08-11T18:43:29.651Z,95705.88
2022-08-11T18:46:19.779Z,95701.81
2022-08-11T18:49:15.297Z,95708.50
2022-08-11T18:52:06.826Z,95700.94
2022-08-11T18:54:55.114Z,95713.56
2022-08-11T18:57:49.906Z,95708.34
2022-08-11T19:00:44.465Z,95718.25
2022-08-11T19:03:32.995Z,95715.22
2022-08-11T19:06:39.935Z,95717.84
2022-08-11T19:09:31.790Z,95713.47
2022-08-11T19:12:19.189Z,95717.69
2022-08-11T19:15:08.442Z,95724.09
2022-08-11T19:17:57.666Z,95723.53
2022-08-11T19:20:46.277Z,95720.25
2022-08-11T19:23:35.035Z,95725.22
2022-08-11T19:26:23.149Z,95729.19
2022-08-11T19:29:09.620Z,95735.81
2022-08-11T19:32:16.890Z,95723.66
2022-08-11T19:35:03.671Z,95731.38
2022-08-11T19:37:50.708Z,95729.63
2022-08-11T19:40:36.321Z,95728.53
2022-08-11T19:43:26.454Z,95732.16
2022-08-11T19:46:14.810Z,95727.47
2022-08-11T19:49:01.519Z,95734.38
2022-08-11T19:51:47.600Z,95740.44
2022-08-11T19:54:42.438Z,95733.66
2022-08-11T19:57:29.099Z,95741.31
2022-08-11T20:00:17.406Z,95742.56
2022-08-11T20:03:07.343Z,95745.66
2022-08-11T20:05:59.418Z,95743.66
2022-08-11T20:08:48.806Z,95744.38
2022-08-11T20:11:37.202Z,95750.97
2022-08-11T20:14:25.630Z,95744.66
2022-08-11T20:17:13.896Z,95751.25
2022-08-11T20:22:51.901Z,95753.97
2022-08-11T20:25:41.197Z,95751.69
2022-08-11T20:28:30.311Z,95753.63
2022-08-11T20:31:15.763Z,95759.94
2022-08-11T20:34:04.317Z,95763.84
2022-08-11T20:36:54.911Z,95759.56
2022-08-11T20:39:41.765Z,95763.25
2022-08-11T20:42:30.768Z,95767.38
2022-08-11T20:45:23.305Z,95765.56
2022-08-11T20:48:10.818Z,95775.34
2022-08-11T20:51:06.262Z,95778.16
2022-08-11T20:53:56.663Z,95780.66
2022-08-11T20:56:45.718Z,95782.66
2022-08-11T20:59:33.259Z,95780.34
2022-08-11T21:02:29.707Z,95781.28
2022-08-11T21:05:19.471Z,95777.91
2022-08-11T21:08:25.548Z,95780.72
2022-08-11T21:11:12.903Z,95781.66
2022-08-11T21:14:01.880Z,95787.13
2022-08-11T21:16:52.758Z,95793.66
2022-08-11T21:20:00.166Z,95799.13
2022-08-11T21:22:59.339Z,95797.41
2022-08-11T21:25:59.252Z,95799.94
2022-08-11T21:28:46.811Z,95797.63
2022-08-11T21:31:34.142Z,95801.25
2022-08-11T21:34:20.899Z,95788.78
2022-08-11T21:37:08.909Z,95791.31
2022-08-11T21:39:56.227Z,95797.16
2022-08-11T21:42:44.359Z,95791.00
2022-08-11T21:45:32.409Z,95791.28
2022-08-11T21:48:19.874Z,95792.44
2022-08-11T21:51:05.099Z,95789.66
2022-08-11T21:53:52.396Z,95810.91
2022-08-11T21:56:38.521Z,95811.22
2022-08-11T21:59:25.709Z,95807.25
2022-08-11T22:02:13.250Z,95809.00
2022-08-11T22:04:59.015Z,95800.84
2022-08-11T22:07:44.586Z,95791.44
2022-08-11T22:10:41.862Z,95798.88
2022-08-11T22:13:30.269Z,95793.53
2022-08-11T22:16:17.973Z,95788.19
2022-08-11T22:19:04.878Z,95785.72
2022-08-11T22:22:01.550Z,95788.63
2022-08-11T22:24:51.387Z,95780.03
2022-08-11T22:27:37.027Z,95783.59
2022-08-11T22:30:25.601Z,95779.50
2022-08-11T22:33:15.042Z,95777.13
2022-08-11T22:36:02.566Z,95781.75
2022-08-11T22:38:51.086Z,95778.31
2022-08-11T22:41:37.233Z,95775.34
2022-08-11T22:44:23.358Z,95782.78
2022-08-11T22:47:10.134Z,95777.09
2022-08-11T22:49:58.690Z,95774.25
2022-08-11T22:52:46.110Z,95772.69
2022-08-11T22:55:32.791Z,95762.50
2022-08-11T22:58:19.344Z,95769.91
2022-08-11T23:01:05.341Z,95772.78
2022-08-11T23:03:51.747Z,95765.00
2022-08-11T23:06:39.584Z,95766.50
2022-08-11T23:09:26.323Z,95764.28
2022-08-11T23:12:12.439Z,95761.91
2022-08-11T23:14:59.492Z,95754.94
2022-08-11T23:17:46.302Z,95757.00
2022-08-11T23:20:43.316Z,95754.19
2022-08-11T23:23:35.687Z,95748.09
2022-08-11T23:26:22.412Z,95756.34
2022-08-11T23:29:07.625Z,95759.66
2022-08-11T23:31:55.062Z,95746.53
2022-08-11T23:35:04.910Z,95743.75
2022-08-11T23:37:48.531Z,95745.78
2022-08-11T23:40:35.925Z,95753.69
2022-08-11T23:43:22.007Z,95749.84
2022-08-11T23:46:07.863Z,95754.53
2022-08-11T23:48:55.809Z,95746.19
2022-08-11T23:51:42.501Z,95750.09
2022-08-11T23:54:32.609Z,95744.59
2022-08-11T23:57:24.186Z,95745.66
